Time;durP1;ratioP1;P1;durP2;ratioP2;P2;SDS_P1;SDS_P2;PMS_P1;PMS_P2;Temp;Humidity;BMP_temperature;BMP_pressure;BME280_temperature;BME280_humidity;BME280_pressure;Samples;Min_cycle;Max_cycle;Signal;HPM_P1;HPM_P2
2022/10/26 00:01:27;;;;;;;17.60;8.90;;;11.30;99.90;;;;;;4980795;28;20047;-57
2022/10/26 00:03:55;;;;;;;13.50;8.77;;;11.40;99.90;;;;;;4980129;28;20047;-57
2022/10/26 00:06:23;;;;;;;16.40;9.85;;;11.20;99.90;;;;;;4981589;28;20449;-57
2022/10/26 00:08:51;;;;;;;14.45;8.55;;;11.20;99.90;;;;;;4979779;28;20124;-57
2022/10/26 00:11:18;;;;;;;14.88;9.18;;;11.30;99.90;;;;;;4981577;28;20050;-56
2022/10/26 00:13:44;;;;;;;17.13;8.82;;;11.20;99.90;;;;;;4979545;28;20062;-57
2022/10/26 00:16:25;;;;;;;13.88;8.32;;;11.20;99.90;;;;;;4980846;28;20077;-57
2022/10/26 00:18:51;;;;;;;16.83;9.20;;;11.20;99.90;;;;;;4980859;28;20055;-56
2022/10/26 00:21:17;;;;;;;13.80;8.95;;;11.30;99.90;;;;;;4979739;28;20079;-57
2022/10/26 00:23:42;;;;;;;15.40;9.10;;;11.30;99.90;;;;;;4980935;28;20050;-57
2022/10/26 00:26:08;;;;;;;13.20;8.57;;;11.20;99.90;;;;;;4979290;28;20046;-57
2022/10/26 00:28:35;;;;;;;14.15;9.20;;;11.20;99.90;;;;;;4981239;28;20130;-57
2022/10/26 00:31:02;;;;;;;16.02;9.25;;;11.20;99.90;;;;;;4979791;28;20043;-57
2022/10/26 00:33:29;;;;;;;14.60;8.75;;;11.30;99.90;;;;;;4980091;28;20038;-57
2022/10/26 00:35:54;;;;;;;15.10;9.82;;;11.20;99.90;;;;;;4947145;28;20384;-56
2022/10/26 00:38:20;;;;;;;14.23;8.82;;;11.20;99.90;;;;;;4979610;28;20035;-57
2022/10/26 00:40:46;;;;;;;15.18;8.25;;;11.10;99.90;;;;;;4980185;28;20582;-56
2022/10/26 00:43:33;;;;;;;14.35;8.45;;;11.10;99.90;;;;;;4979173;28;20085;-56
2022/10/26 00:46:00;;;;;;;20.52;9.20;;;11.20;99.90;;;;;;4980334;28;20043;-57
2022/10/26 00:48:34;;;;;;;13.52;8.48;;;11.20;99.90;;;;;;4980212;28;20071;-56
2022/10/26 00:51:04;;;;;;;18.15;8.85;;;11.00;99.90;;;;;;4979497;28;20046;-57
2022/10/26 00:53:31;;;;;;;20.05;9.48;;;11.00;99.90;;;;;;4980488;28;20067;-57
2022/10/26 00:55:57;;;;;;;12.77;8.60;;;11.20;99.90;;;;;;4978938;28;20069;-57
2022/10/26 00:58:25;;;;;;;12.15;8.05;;;11.10;99.90;;;;;;4981136;28;20075;-54
2022/10/26 01:00:52;;;;;;;15.27;9.07;;;11.20;99.90;;;;;;4978980;28;20050;-57
2022/10/26 01:03:19;;;;;;;16.45;8.95;;;11.20;99.90;;;;;;4980233;28;20042;-57
2022/10/26 01:05:46;;;;;;;16.63;8.80;;;11.10;99.90;;;;;;4979888;28;20092;-58
2022/10/26 01:08:14;;;;;;;15.15;9.32;;;11.20;99.90;;;;;;4979379;28;20043;-58
2022/10/26 01:10:41;;;;;;;15.40;8.98;;;11.00;99.90;;;;;;4980562;28;20082;-58
2022/10/26 01:13:07;;;;;;;16.15;9.40;;;11.10;99.90;;;;;;4978848;28;20050;-58
2022/10/26 01:16:02;;;;;;;16.30;9.48;;;11.00;99.90;;;;;;4980688;28;20054;-57
2022/10/26 01:18:33;;;;;;;15.40;8.57;;;11.00;99.90;;;;;;4971307;28;20090;-57
2022/10/26 01:21:20;;;;;;;17.10;9.27;;;11.10;99.90;;;;;;4979378;28;20038;-57
2022/10/26 01:23:58;;;;;;;15.80;9.70;;;11.10;99.90;;;;;;4962974;28;20051;-57
2022/10/26 01:26:27;;;;;;;17.40;9.32;;;11.00;99.90;;;;;;4978411;28;20094;-56
2022/10/26 01:29:11;;;;;;;15.13;8.90;;;11.00;99.90;;;;;;4980143;28;20086;-57
2022/10/26 01:31:47;;;;;;;18.55;9.93;;;10.80;99.90;;;;;;4980045;28;20046;-57
2022/10/26 01:34:26;;;;;;;18.50;9.73;;;10.80;99.90;;;;;;4961500;28;20070;-57
2022/10/26 01:36:58;;;;;;;14.85;9.10;;;10.90;99.90;;;;;;4980609;28;20051;-57
2022/10/26 01:39:28;;;;;;;15.52;9.75;;;10.80;99.90;;;;;;4978776;28;20050;-57
2022/10/26 01:41:59;;;;;;;16.05;10.00;;;10.80;99.90;;;;;;4979958;28;20050;-57
2022/10/26 01:44:40;;;;;;;16.13;10.27;;;10.80;99.90;;;;;;4980065;28;20049;-57
2022/10/26 01:47:08;;;;;;;17.60;10.33;;;10.90;99.90;;;;;;4978364;28;20069;-57
2022/10/26 01:49:37;;;;;;;14.75;9.40;;;10.80;99.90;;;;;;4980168;28;20503;-57
2022/10/26 01:52:03;;;;;;;14.95;9.50;;;10.70;99.90;;;;;;4978327;28;20038;-57
2022/10/26 01:54:29;;;;;;;15.57;9.52;;;10.60;99.90;;;;;;4980109;28;20043;-57
2022/10/26 01:57:01;;;;;;;15.93;9.80;;;10.60;99.90;;;;;;4979016;28;20601;-56
2022/10/26 01:59:46;;;;;;;16.80;10.03;;;10.70;99.90;;;;;;4979148;28;20152;-57
2022/10/26 02:02:25;;;;;;;15.25;9.75;;;10.70;99.90;;;;;;4978492;28;20318;-57
2022/10/26 02:05:14;;;;;;;15.40;9.55;;;10.70;99.90;;;;;;4982004;28;20054;-57
2022/10/26 02:08:05;;;;;;;16.63;10.20;;;10.60;99.90;;;;;;4983042;28;20101;-57
2022/10/26 02:10:41;;;;;;;18.27;9.57;;;10.60;99.90;;;;;;4998200;28;20135;-56
2022/10/26 02:13:19;;;;;;;16.00;11.75;;;10.60;99.90;;;;;;4981850;28;20046;-57
2022/10/26 02:16:02;;;;;;;15.35;10.60;;;10.60;99.90;;;;;;4983563;28;20428;-57
2022/10/26 02:18:38;;;;;;;16.98;10.88;;;10.70;99.90;;;;;;4982660;28;20046;-57
2022/10/26 02:21:09;;;;;;;18.25;11.45;;;10.60;99.90;;;;;;4982106;28;20054;-57
2022/10/26 02:23:37;;;;;;;17.77;10.90;;;10.60;99.90;;;;;;4983056;28;20083;-56
2022/10/26 02:26:06;;;;;;;18.83;11.98;;;10.60;99.90;;;;;;4981216;28;20556;-57
2022/10/26 02:28:38;;;;;;;17.35;10.75;;;10.70;99.90;;;;;;4983376;28;20118;-55
2022/10/26 02:31:06;;;;;;;18.13;11.38;;;10.70;99.90;;;;;;4982188;28;20053;-57
2022/10/26 02:33:37;;;;;;;17.38;11.20;;;10.60;99.90;;;;;;4982004;28;20042;-57
2022/10/26 02:36:07;;;;;;;18.55;11.15;;;10.50;99.90;;;;;;4965427;28;20047;-56
2022/10/26 02:38:34;;;;;;;18.10;11.45;;;10.50;99.90;;;;;;4981564;28;20054;-57
2022/10/26 02:41:01;;;;;;;17.52;10.25;;;10.70;99.90;;;;;;4983232;28;20078;-57
2022/10/26 02:43:29;;;;;;;17.23;11.05;;;10.50;99.90;;;;;;4981293;28;20492;-56
2022/10/26 02:46:16;;;;;;;16.88;10.40;;;10.60;99.90;;;;;;4964970;28;20049;-57
2022/10/26 02:48:42;;;;;;;14.80;10.20;;;10.50;99.90;;;;;;4982222;28;20066;-56
2022/10/26 02:51:22;;;;;;;18.95;11.73;;;10.50;99.90;;;;;;4981150;28;20039;-57
2022/10/26 02:53:57;;;;;;;17.00;10.23;;;10.50;99.90;;;;;;4997684;28;20046;-57
2022/10/26 02:56:28;;;;;;;18.83;10.52;;;10.50;99.90;;;;;;4995758;28;20447;-56
2022/10/26 02:59:00;;;;;;;17.20;11.20;;;10.40;99.90;;;;;;4982624;28;20046;-57
2022/10/26 03:01:28;;;;;;;19.58;10.82;;;10.50;99.90;;;;;;4982377;28;20156;-56
2022/10/26 03:03:57;;;;;;;19.10;10.07;;;10.50;99.90;;;;;;4981428;28;20051;-57
2022/10/26 03:06:23;;;;;;;17.02;10.07;;;10.40;99.90;;;;;;4982724;28;20043;-57
2022/10/26 03:08:49;;;;;;;16.60;10.68;;;10.50;99.90;;;;;;4963702;28;20078;-57
2022/10/26 03:11:15;;;;;;;18.73;11.02;;;10.30;99.90;;;;;;4965280;28;20042;-57
2022/10/26 03:13:41;;;;;;;19.05;10.82;;;10.30;99.90;;;;;;4980866;28;20051;-57
2022/10/26 03:16:07;;;;;;;15.80;10.35;;;10.40;99.90;;;;;;4981522;28;20202;-57
2022/10/26 03:18:32;;;;;;;17.92;10.93;;;10.30;99.90;;;;;;4981731;28;20050;-58
2022/10/26 03:20:58;;;;;;;15.63;10.57;;;10.20;99.90;;;;;;4981318;28;20051;-57
2022/10/26 03:23:23;;;;;;;18.10;11.38;;;10.20;99.90;;;;;;4964598;28;20079;-57
2022/10/26 03:25:49;;;;;;;17.08;10.25;;;10.20;99.90;;;;;;4979886;28;20059;-57
2022/10/26 03:28:15;;;;;;;16.77;10.93;;;10.20;99.90;;;;;;4982403;28;20055;-57
2022/10/26 03:30:40;;;;;;;16.63;10.52;;;10.20;99.90;;;;;;4980614;28;20050;-57
2022/10/26 03:33:06;;;;;;;16.55;11.43;;;10.10;99.90;;;;;;4981784;28;20070;-58
2022/10/26 03:35:32;;;;;;;16.30;10.50;;;10.20;99.90;;;;;;4964047;28;20039;-57
2022/10/26 03:37:57;;;;;;;18.90;10.95;;;10.20;99.90;;;;;;4963442;28;20086;-57
2022/10/26 03:40:23;;;;;;;18.80;11.38;;;10.20;99.90;;;;;;4981952;28;20420;-57
2022/10/26 03:42:49;;;;;;;18.27;12.20;;;10.10;99.90;;;;;;4980264;28;20039;-54
2022/10/26 03:45:14;;;;;;;17.30;11.48;;;10.10;99.90;;;;;;4964958;28;20038;-56
2022/10/26 03:47:48;;;;;;;14.88;10.48;;;10.10;99.90;;;;;;4980175;28;20066;-57
2022/10/26 03:50:16;;;;;;;20.60;11.00;;;10.20;99.90;;;;;;4981702;28;20090;-58
2022/10/26 03:52:41;;;;;;;17.60;10.88;;;10.30;99.90;;;;;;4996110;28;20057;-57
2022/10/26 03:55:08;;;;;;;20.23;12.75;;;10.20;99.90;;;;;;4980618;28;20430;-58
2022/10/26 03:57:33;;;;;;;19.65;11.18;;;10.20;99.90;;;;;;4981485;28;20101;-57
2022/10/26 03:59:59;;;;;;;16.98;10.77;;;10.10;99.90;;;;;;4962402;28;20053;-56
2022/10/26 04:02:24;;;;;;;18.92;11.20;;;10.10;99.90;;;;;;4981666;28;20483;-57
2022/10/26 04:04:50;;;;;;;21.00;11.70;;;10.20;99.90;;;;;;4980051;28;20053;-57
2022/10/26 04:07:16;;;;;;;19.73;11.73;;;10.20;99.90;;;;;;4981526;28;20074;-57
2022/10/26 04:09:41;;;;;;;18.13;11.13;;;10.20;99.90;;;;;;4980795;28;20051;-57
2022/10/26 04:12:07;;;;;;;20.30;11.23;;;10.20;99.90;;;;;;4980620;28;20094;-57
2022/10/26 04:14:33;;;;;;;17.25;10.93;;;10.30;99.90;;;;;;4981229;28;20442;-57
2022/10/26 04:16:58;;;;;;;19.27;11.95;;;10.10;99.90;;;;;;4962717;28;20050;-57
2022/10/26 04:19:24;;;;;;;21.02;11.60;;;10.10;99.90;;;;;;4981463;28;20048;-57
2022/10/26 04:21:50;;;;;;;18.90;11.35;;;10.10;99.90;;;;;;4979266;28;20411;-57
2022/10/26 04:24:16;;;;;;;20.80;11.60;;;10.00;99.90;;;;;;4981256;28;20047;-57
2022/10/26 04:26:44;;;;;;;18.50;11.50;;;10.10;99.90;;;;;;4979671;28;20058;-57
2022/10/26 04:29:10;;;;;;;17.95;11.52;;;10.20;99.90;;;;;;4980361;28;20077;-57
2022/10/26 04:31:35;;;;;;;20.95;12.05;;;10.20;99.90;;;;;;4980930;28;20057;-57
2022/10/26 04:34:01;;;;;;;20.10;12.00;;;10.20;99.90;;;;;;4979296;28;20042;-57
2022/10/26 04:36:27;;;;;;;22.67;12.35;;;10.10;99.90;;;;;;4980796;28;20149;-57
2022/10/26 04:38:52;;;;;;;18.90;12.10;;;10.10;99.90;;;;;;4961994;28;20083;-57
2022/10/26 04:41:18;;;;;;;18.60;11.63;;;10.10;99.90;;;;;;4980989;28;20042;-57
2022/10/26 04:43:43;;;;;;;21.58;12.27;;;10.20;99.90;;;;;;4979757;28;20062;-57
2022/10/26 04:46:12;;;;;;;22.60;11.90;;;10.30;99.90;;;;;;4980711;28;20091;-57
2022/10/26 04:48:38;;;;;;;17.83;11.85;;;10.40;99.90;;;;;;4980463;28;20051;-57
2022/10/26 04:51:03;;;;;;;21.95;13.60;;;10.40;99.90;;;;;;4979261;28;20061;-57
2022/10/26 04:53:29;;;;;;;17.90;11.68;;;10.30;99.90;;;;;;4980810;28;20050;-57
2022/10/26 04:55:59;;;;;;;19.25;11.63;;;10.50;99.90;;;;;;4979268;28;20089;-57
2022/10/26 04:58:25;;;;;;;19.50;12.68;;;10.50;99.90;;;;;;4963489;28;20106;-57
2022/10/26 05:00:50;;;;;;;19.15;12.23;;;10.50;99.90;;;;;;4946006;28;20057;-56
2022/10/26 05:03:16;;;;;;;19.75;12.48;;;10.50;99.90;;;;;;4962626;28;20047;-56
2022/10/26 05:05:42;;;;;;;20.58;12.57;;;10.40;99.90;;;;;;4980310;28;20046;-57
2022/10/26 05:08:07;;;;;;;22.08;13.75;;;10.00;99.90;;;;;;4979441;28;20046;-59
2022/10/26 05:10:33;;;;;;;18.55;12.82;;;10.40;99.90;;;;;;4980727;28;20049;-57
2022/10/26 05:13:00;;;;;;;19.88;13.25;;;10.50;99.90;;;;;;4978741;28;20947;-59
2022/10/26 05:15:27;;;;;;;22.05;13.68;;;10.30;99.90;;;;;;4980758;28;20054;-57
2022/10/26 05:18:04;;;;;;;24.33;14.05;;;10.40;99.90;;;;;;4979394;28;20081;-57
2022/10/26 05:20:32;;;;;;;21.75;14.00;;;10.50;99.90;;;;;;4979698;28;20051;-57
2022/10/26 05:23:05;;;;;;;20.48;13.68;;;10.40;99.90;;;;;;4962709;28;20049;-56
2022/10/26 05:25:34;;;;;;;19.02;12.38;;;10.50;99.90;;;;;;4978691;28;20058;-57
2022/10/26 05:28:06;;;;;;;23.08;14.35;;;10.50;99.90;;;;;;4980392;28;20554;-57
2022/10/26 05:30:32;;;;;;;;;;;10.50;99.90;;;;;;4979088;28;20050;-57
2022/10/26 05:33:01;;;;;;;22.30;13.18;;;10.40;99.90;;;;;;4977462;28;19929;-57
2022/10/26 05:35:28;;;;;;;23.17;14.40;;;10.40;99.90;;;;;;4976059;28;20049;-56
2022/10/26 05:37:53;;;;;;;20.83;13.70;;;10.40;99.90;;;;;;4976222;28;20181;-57
2022/10/26 05:40:20;;;;;;;23.27;14.55;;;10.40;99.90;;;;;;4980153;28;20086;-57
2022/10/26 05:42:45;;;;;;;20.83;14.10;;;10.40;99.90;;;;;;4978938;28;20101;-57
2022/10/26 05:45:12;;;;;;;20.92;13.82;;;10.50;99.90;;;;;;4979617;28;20467;-56
2022/10/26 05:47:43;;;;;;;23.80;15.30;;;10.60;99.90;;;;;;4978522;28;20055;-57
2022/10/26 05:50:10;;;;;;;20.42;13.88;;;10.40;99.90;;;;;;4979832;28;20047;-58
2022/10/26 05:52:46;;;;;;;23.75;14.18;;;10.40;99.90;;;;;;4979618;28;20058;-58
2022/10/26 05:55:14;;;;;;;23.80;14.75;;;10.50;99.90;;;;;;4978680;28;20061;-57
2022/10/26 05:57:40;;;;;;;26.92;15.15;;;10.40;99.90;;;;;;4979587;28;20053;-57
2022/10/26 06:00:17;;;;;;;21.35;14.48;;;10.50;99.90;;;;;;4978257;28;20058;-58
2022/10/26 06:03:20;;;;;;;22.23;14.40;;;10.50;99.90;;;;;;4980051;28;20046;-57
2022/10/26 06:05:53;;;;;;;;;;;10.40;99.90;;;;;;4979895;28;20467;-57
2022/10/26 06:08:20;;;;;;;22.42;13.73;;;10.50;99.90;;;;;;4978246;28;19969;-57
2022/10/26 06:10:47;;;;;;;27.67;15.38;;;10.50;99.90;;;;;;4979631;28;20453;-59
2022/10/26 06:13:13;;;;;;;23.42;14.88;;;10.30;99.90;;;;;;4978218;28;20070;-60
2022/10/26 06:16:04;;;;;;;22.95;14.65;;;10.60;99.90;;;;;;4979552;28;20042;-58
2022/10/26 06:18:48;;;;;;;25.43;15.87;;;10.40;99.90;;;;;;4979062;28;20046;-57
2022/10/26 06:21:41;;;;;;;24.42;15.82;;;10.60;99.90;;;;;;4959894;28;20070;-58
2022/10/26 06:24:20;;;;;;;21.90;14.57;;;10.70;99.90;;;;;;4979814;28;20174;-57
2022/10/26 06:27:24;;;;;;;22.40;14.15;;;10.50;99.90;;;;;;4960829;28;20055;-57
2022/10/26 06:30:00;;;;;;;21.88;13.15;;;10.70;99.90;;;;;;4978069;28;20058;-57
2022/10/26 06:32:26;;;;;;;23.70;13.60;;;10.60;99.90;;;;;;4979115;28;20704;-57
2022/10/26 06:35:08;;;;;;;21.35;13.38;;;10.80;99.90;;;;;;4977370;28;20070;-57
2022/10/26 06:37:36;;;;;;;22.70;12.95;;;10.70;99.90;;;;;;4978774;28;20043;-57
2022/10/26 06:40:03;;;;;;;21.95;13.00;;;10.70;99.90;;;;;;4978837;28;20058;-57
2022/10/26 06:42:30;;;;;;;18.35;13.00;;;10.70;99.90;;;;;;4977549;28;20086;-58
2022/10/26 06:44:56;;;;;;;22.52;13.35;;;10.70;99.90;;;;;;4978563;28;20109;-57
2022/10/26 06:47:48;;;;;;;21.67;12.60;;;10.80;99.90;;;;;;4977356;28;20427;-57
2022/10/26 06:50:26;;;;;;;18.98;12.75;;;10.80;99.90;;;;;;4950687;28;20061;-58
2022/10/26 06:53:13;;;;;;;21.00;13.20;;;10.90;99.90;;;;;;4978714;28;20047;-57
2022/10/26 06:55:43;;;;;;;21.52;12.82;;;10.80;99.90;;;;;;4977159;28;20046;-59
2022/10/26 06:58:16;;;;;;;20.85;13.00;;;10.70;99.90;;;;;;4978497;28;20058;-59
2022/10/26 07:00:46;;;;;;;20.98;12.77;;;10.80;99.90;;;;;;4977334;28;20047;-59
2022/10/26 07:03:12;;;;;;;20.35;12.48;;;10.90;99.90;;;;;;4978274;28;20047;-59
2022/10/26 07:05:38;;;;;;;21.13;12.23;;;10.70;99.90;;;;;;4966408;28;20694;-58
2022/10/26 07:08:04;;;;;;;21.33;12.45;;;10.80;99.90;;;;;;4968692;28;20117;-58
2022/10/26 07:10:30;;;;;;;19.85;11.98;;;10.80;99.90;;;;;;4935990;28;20093;-59
2022/10/26 07:12:56;;;;;;;18.50;12.00;;;10.90;99.90;;;;;;4968153;28;20489;-58
2022/10/26 07:15:22;;;;;;;18.23;12.43;;;10.90;99.90;;;;;;4970130;28;20042;-59
2022/10/26 07:17:49;;;;;;;18.05;12.00;;;10.90;99.90;;;;;;4968779;28;20089;-58
2022/10/26 07:20:20;;;;;;;21.15;13.35;;;10.80;99.90;;;;;;4969530;28;20047;-58
2022/10/26 07:22:54;;;;;;;22.42;13.45;;;10.90;99.90;;;;;;4969325;28;20054;-58
2022/10/26 07:25:21;;;;;;;19.38;12.43;;;10.80;99.90;;;;;;4968212;28;20478;-58
2022/10/26 07:27:47;;;;;;;21.05;11.65;;;11.00;99.90;;;;;;4969590;28;20046;-58
2022/10/26 07:30:13;;;;;;;17.80;11.85;;;11.00;99.90;;;;;;4968279;28;20559;-58
2022/10/26 07:32:39;;;;;;;19.15;12.15;;;11.10;99.90;;;;;;4983592;28;20042;-58
2022/10/26 07:35:05;;;;;;;18.85;11.40;;;11.00;99.90;;;;;;4983044;28;20105;-58
2022/10/26 07:37:30;;;;;;;21.15;12.38;;;11.00;99.90;;;;;;4983388;28;20054;-58
2022/10/26 07:39:56;;;;;;;21.00;12.55;;;11.10;99.90;;;;;;4983173;28;20070;-58
2022/10/26 07:42:22;;;;;;;19.25;11.88;;;11.30;99.90;;;;;;4967090;28;20168;-58
2022/10/26 07:44:47;;;;;;;18.02;11.48;;;11.30;99.90;;;;;;4968476;28;20038;-57
2022/10/26 07:47:13;;;;;;;20.70;12.88;;;11.20;99.90;;;;;;4967314;28;20058;-58
2022/10/26 07:49:39;;;;;;;19.70;11.35;;;11.30;99.90;;;;;;4969197;28;20053;-58
2022/10/26 07:52:05;;;;;;;18.00;11.32;;;11.40;99.90;;;;;;4967196;28;20041;-58
2022/10/26 07:54:31;;;;;;;17.45;11.05;;;11.30;99.90;;;;;;4968361;28;20031;-58
2022/10/26 07:56:56;;;;;;;17.70;10.65;;;11.40;99.90;;;;;;4968282;28;20054;-58
2022/10/26 07:59:22;;;;;;;17.48;10.60;;;11.30;99.90;;;;;;4967737;28;20047;-59
2022/10/26 08:01:48;;;;;;;18.60;11.10;;;11.50;99.90;;;;;;4968199;28;20051;-58
2022/10/26 08:04:14;;;;;;;16.73;10.25;;;11.60;99.90;;;;;;4967275;28;20046;-58
2022/10/26 08:06:40;;;;;;;17.58;10.43;;;11.60;99.90;;;;;;4968318;28;20640;-59
2022/10/26 08:09:06;;;;;;;17.40;9.70;;;11.50;99.90;;;;;;4965687;28;20038;-58
2022/10/26 08:11:32;;;;;;;18.08;9.80;;;11.50;99.90;;;;;;4968980;28;20035;-58
2022/10/26 08:13:57;;;;;;;18.58;9.88;;;11.60;99.90;;;;;;4968604;28;20043;-58
2022/10/26 08:16:23;;;;;;;19.33;10.05;;;11.60;99.90;;;;;;4967300;28;20047;-58
2022/10/26 08:18:50;;;;;;;18.05;9.75;;;11.60;99.90;;;;;;4968441;28;20053;-59
2022/10/26 08:21:17;;;;;;;15.77;9.75;;;11.80;99.90;;;;;;4965767;28;20102;-58
2022/10/26 08:23:43;;;;;;;18.30;9.23;;;11.70;99.90;;;;;;4983273;28;20043;-59
2022/10/26 08:26:12;;;;;;;15.80;8.85;;;11.80;99.90;;;;;;4980719;28;20062;-58
2022/10/26 08:28:39;;;;;;;17.17;9.15;;;11.90;99.90;;;;;;4967946;28;20426;-59
2022/10/26 08:31:05;;;;;;;14.77;9.20;;;11.90;99.90;;;;;;4967436;28;20055;-59
2022/10/26 08:33:31;;;;;;;12.38;8.48;;;11.90;99.90;;;;;;4966724;28;21483;-58
2022/10/26 08:36:04;;;;;;;14.00;8.55;;;11.90;99.90;;;;;;4956675;28;20090;-58
2022/10/26 08:38:32;;;;;;;13.82;8.25;;;12.10;99.90;;;;;;4966709;28;20049;-58
2022/10/26 08:40:58;;;;;;;14.30;8.15;;;12.30;99.90;;;;;;4968585;28;20052;-57
2022/10/26 08:43:35;;;;;;;15.55;8.00;;;12.40;99.90;;;;;;4966303;28;20121;-58
2022/10/26 08:46:22;;;;;;;13.18;7.97;;;12.40;99.90;;;;;;4949072;28;20055;-58
2022/10/26 08:49:01;;;;;;;14.30;7.90;;;12.40;99.90;;;;;;4968459;28;20601;-58
2022/10/26 08:51:36;;;;;;;12.98;7.80;;;12.60;99.90;;;;;;4980700;28;20050;-58
2022/10/26 08:54:13;;;;;;;11.23;7.18;;;12.70;99.90;;;;;;4968131;28;20053;-58
2022/10/26 08:56:57;;;;;;;12.68;7.53;;;12.80;99.90;;;;;;4965952;28;20102;-58
2022/10/26 09:00:01;;;;;;;13.15;7.53;;;12.80;99.90;;;;;;4966555;28;20051;-59
2022/10/26 09:02:27;;;;;;;11.57;6.80;;;12.90;99.90;;;;;;4959507;28;20165;-58
2022/10/26 09:04:56;;;;;;;15.60;7.30;;;13.00;99.90;;;;;;4966737;28;20046;-59
2022/10/26 09:07:48;;;;;;;10.88;6.30;;;13.10;99.90;;;;;;4967553;28;20425;-59
2022/10/26 09:10:22;;;;;;;14.35;7.10;;;13.20;99.90;;;;;;4967340;28;20746;-59
2022/10/26 09:13:15;;;;;;;12.52;6.25;;;13.40;99.90;;;;;;4968966;28;20110;-59
2022/10/26 09:15:47;;;;;;;11.98;6.35;;;13.40;99.90;;;;;;4971448;28;20039;-59
2022/10/26 09:18:32;;;;;;;12.80;6.10;;;13.30;99.90;;;;;;4970588;28;20043;-57
2022/10/26 09:21:09;;;;;;;9.18;6.07;;;13.60;99.90;;;;;;4970748;28;20062;-57
2022/10/26 09:23:51;;;;;;;11.43;5.78;;;13.60;99.90;;;;;;4974268;28;20047;-57
2022/10/26 09:26:38;;;;;;;;;;;13.60;99.90;;;;;;4973434;28;20043;-57
2022/10/26 09:29:09;;;;;;;11.35;4.80;;;13.70;99.90;;;;;;4997078;28;20484;-55
2022/10/26 09:31:44;;;;;;;9.95;4.70;;;13.80;99.90;;;;;;4982841;28;20043;-56
2022/10/26 09:34:41;;;;;;;11.63;4.45;;;13.80;99.90;;;;;;4981084;28;20043;-57
2022/10/26 09:37:30;;;;;;;11.90;4.65;;;13.90;99.90;;;;;;4945120;28;20851;-57
2022/10/26 09:40:37;;;;;;;10.75;3.83;;;14.30;99.90;;;;;;4982668;28;20054;-58
2022/10/26 09:43:10;;;;;;;8.68;4.53;;;14.40;99.90;;;;;;4949912;29;20116;-59
2022/10/26 09:45:40;;;;;;;10.68;4.40;;;14.50;99.90;;;;;;4998462;28;20092;-58
2022/10/26 09:48:31;;;;;;;9.20;4.13;;;14.60;99.90;;;;;;5002642;28;20047;-57
2022/10/26 09:50:59;;;;;;;7.63;3.83;;;14.60;99.90;;;;;;5001951;28;20042;-58
2022/10/26 09:53:25;;;;;;;10.15;3.95;;;14.70;99.90;;;;;;4986035;28;20052;-58
2022/10/26 09:56:06;;;;;;;9.75;3.92;;;14.80;99.90;;;;;;5001622;28;20050;-57
2022/10/26 09:58:51;;;;;;;8.52;3.50;;;15.00;99.90;;;;;;5003408;28;20078;-57
2022/10/26 10:01:31;;;;;;;6.97;3.65;;;15.00;99.90;;;;;;5002810;28;20054;-56
2022/10/26 10:04:12;;;;;;;8.77;3.33;;;15.00;99.90;;;;;;5001491;28;20054;-57
2022/10/26 10:06:43;;;;;;;9.55;3.70;;;15.00;99.90;;;;;;5003501;28;20046;-57
2022/10/26 10:09:17;;;;;;;8.10;3.65;;;15.30;99.90;;;;;;5001570;28;20082;-56
2022/10/26 10:12:02;;;;;;;9.32;3.38;;;15.30;99.90;;;;;;5002616;28;20046;-57
2022/10/26 10:14:36;;;;;;;9.05;3.45;;;15.40;99.90;;;;;;5002565;28;20046;-57
2022/10/26 10:17:09;;;;;;;8.60;3.63;;;15.40;99.90;;;;;;5001233;28;20050;-58
2022/10/26 10:19:37;;;;;;;8.73;3.95;;;15.40;99.90;;;;;;5002974;28;20207;-57
2022/10/26 10:22:22;;;;;;;7.43;3.55;;;15.50;99.90;;;;;;5001186;28;20053;-57
2022/10/26 10:24:59;;;;;;;9.77;4.00;;;15.50;99.90;;;;;;5001130;28;20053;-57
2022/10/26 10:27:27;;;;;;;10.00;4.20;;;15.50;99.90;;;;;;5002557;28;20145;-57
2022/10/26 10:29:54;;;;;;;11.75;4.70;;;15.40;99.90;;;;;;5000952;28;20050;-57
2022/10/26 10:32:31;;;;;;;10.02;4.68;;;15.30;99.90;;;;;;4985277;28;20431;-57
2022/10/26 10:34:59;;;;;;;9.63;4.30;;;15.40;99.90;;;;;;5001283;28;20050;-56
2022/10/26 10:37:37;;;;;;;9.50;4.30;;;15.30;99.90;;;;;;5002003;28;20136;-57
2022/10/26 10:40:02;;;;;;;8.55;4.10;;;15.30;99.90;;;;;;4984572;28;20069;-57
2022/10/26 10:42:34;;;;;;;8.88;4.43;;;15.20;99.90;;;;;;4981624;28;20046;-57
2022/10/26 10:45:01;;;;;;;9.15;4.28;;;15.20;99.90;;;;;;4982705;28;20051;-57
2022/10/26 10:47:32;;;;;;;10.23;4.10;;;15.30;99.90;;;;;;4981298;28;20082;-57
2022/10/26 10:50:02;;;;;;;10.68;4.43;;;15.20;99.90;;;;;;4983020;28;20047;-58
2022/10/26 10:52:31;;;;;;;6.68;3.75;;;15.20;99.90;;;;;;4982037;28;20041;-57
2022/10/26 10:55:20;;;;;;;9.10;3.85;;;15.20;99.90;;;;;;4981904;28;20057;-57
2022/10/26 10:58:00;;;;;;;8.93;4.35;;;15.20;99.90;;;;;;4971818;28;20055;-57
2022/10/26 11:00:26;;;;;;;8.23;3.95;;;15.30;99.90;;;;;;4981184;28;20055;-57
2022/10/26 11:03:08;;;;;;;10.85;3.90;;;15.40;99.90;;;;;;4982590;28;20107;-57
2022/10/26 11:05:54;;;;;;;;;;;15.40;99.90;;;;;;4982769;28;20081;-57
2022/10/26 11:09:01;;;;;;;10.32;4.03;;;15.40;99.90;;;;;;4980813;28;19930;-56
2022/10/26 11:11:30;;;;;;;9.65;3.60;;;15.70;99.90;;;;;;4982496;28;20125;-57
2022/10/26 11:14:03;;;;;;;8.30;3.40;;;15.80;99.90;;;;;;4981883;28;20042;-57
2022/10/26 11:16:37;;;;;;;10.05;3.38;;;15.80;99.90;;;;;;4981247;28;20121;-57
2022/10/26 11:19:21;;;;;;;8.80;3.65;;;15.90;99.90;;;;;;4982469;28;20038;-57
2022/10/26 11:21:52;;;;;;;6.85;3.20;;;15.90;99.90;;;;;;4980756;28;20062;-57
2022/10/26 11:24:41;;;;;;;8.70;3.38;;;16.00;99.90;;;;;;4982178;28;20075;-57
2022/10/26 11:27:28;;;;;;;8.75;3.50;;;16.20;99.90;;;;;;4983183;28;20053;-56
2022/10/26 11:30:09;;;;;;;8.63;3.17;;;16.30;99.90;;;;;;4999851;28;20054;-57
2022/10/26 11:32:48;;;;;;;8.45;3.20;;;16.40;99.90;;;;;;5001514;28;20106;-55
2022/10/26 11:35:26;;;;;;;8.32;3.10;;;16.50;99.90;;;;;;4999326;28;20062;-57
2022/10/26 11:38:00;;;;;;;11.88;3.40;;;16.50;99.90;;;;;;5000496;28;20048;-57
2022/10/26 11:40:37;;;;;;;6.70;2.53;;;16.80;99.90;;;;;;4980978;28;20046;-58
2022/10/26 11:43:29;;;;;;;6.90;2.97;;;16.90;99.90;;;;;;4980303;28;20061;-57
2022/10/26 11:46:30;;;;;;;8.35;3.10;;;17.00;99.90;;;;;;4981490;28;20050;-57
2022/10/26 11:49:18;;;;;;;9.90;3.22;;;17.00;99.90;;;;;;4977916;28;20059;-57
2022/10/26 11:51:54;;;;;;;8.07;3.10;;;17.00;99.90;;;;;;4979974;28;20054;-56
2022/10/26 11:54:59;;;;;;;9.70;3.70;;;17.00;99.90;;;;;;4963967;28;20053;-57
2022/10/26 11:57:27;;;;;;;9.88;3.40;;;17.10;99.90;;;;;;4887155;29;20059;-57
2022/10/26 12:00:14;;;;;;;9.07;3.67;;;17.00;99.90;;;;;;4966971;28;20209;-57
2022/10/26 12:02:41;;;;;;;10.68;3.55;;;17.10;99.90;;;;;;4981412;28;20046;-58
2022/10/26 12:05:34;;;;;;;13.52;3.70;;;17.10;99.90;;;;;;4980339;28;20035;-57
2022/10/26 12:08:05;;;;;;;8.15;2.95;;;17.20;99.90;;;;;;4978989;28;20205;-57
2022/10/26 12:10:38;;;;;;;7.80;3.30;;;17.10;99.90;;;;;;4963234;28;20047;-57
2022/10/26 12:13:22;;;;;;;8.90;3.30;;;17.20;99.90;;;;;;4979696;28;20106;-57
2022/10/26 12:15:49;;;;;;;8.55;3.22;;;17.20;99.90;;;;;;4980678;28;20129;-58
2022/10/26 12:18:19;;;;;;;8.55;2.92;;;17.10;99.90;;;;;;4980608;28;20396;-57
2022/10/26 12:20:54;;;;;;;9.57;3.30;;;17.10;99.90;;;;;;4979146;28;20061;-57
2022/10/26 12:23:22;;;;;;;7.97;3.33;;;17.00;99.90;;;;;;4980680;28;20102;-57
2022/10/26 12:25:47;;;;;;;8.52;3.40;;;17.00;99.90;;;;;;4979138;28;20046;-57
2022/10/26 12:28:39;;;;;;;9.13;3.65;;;17.00;99.90;;;;;;4980882;28;20073;-57
2022/10/26 12:31:44;;;;;;;8.35;3.60;;;17.10;99.90;;;;;;4973255;28;20050;-57
2022/10/26 12:34:13;;;;;;;9.48;3.40;;;17.10;99.90;;;;;;4998183;28;20058;-57
2022/10/26 12:36:54;;;;;;;9.55;3.60;;;17.10;99.90;;;;;;5000474;28;20050;-57
2022/10/26 12:39:36;;;;;;;9.23;4.45;;;17.00;99.90;;;;;;4999228;28;20098;-57
2022/10/26 12:42:05;;;;;;;9.43;3.35;;;17.00;99.90;;;;;;4966134;28;20050;-58
2022/10/26 12:44:35;;;;;;;9.00;3.88;;;17.00;99.90;;;;;;4980777;28;20043;-57
2022/10/26 12:47:00;;;;;;;9.23;3.17;;;16.90;99.90;;;;;;4978807;28;20474;-57
2022/10/26 12:50:00;;;;;;;10.52;3.72;;;16.90;99.90;;;;;;4980877;28;20035;-57
2022/10/26 12:52:50;;;;;;;9.60;3.80;;;17.00;99.90;;;;;;4962521;28;20078;-57
2022/10/26 12:55:42;;;;;;;6.60;3.67;;;16.90;99.90;;;;;;4979184;28;20053;-57
2022/10/26 12:58:07;;;;;;;;;;;17.00;99.90;;;;;;4963842;28;20051;-57
2022/10/26 13:00:40;;;;;;;10.70;3.88;;;17.00;99.90;;;;;;4979134;28;19972;-58
2022/10/26 13:03:15;;;;;;;7.75;4.35;;;17.00;99.90;;;;;;4979745;28;20081;-57